sensor_id;sensor_type;location;lat;lon;timestamp;P1;durP1;ratioP1;P2;durP2;ratioP2
68888;SDS011;55930;47.412;8.790;2023-07-13T00:03:09;4.67;;;3.20;;
68888;SDS011;55930;47.412;8.790;2023-07-13T00:06:33;4.60;;;3.08;;
68888;SDS011;55930;47.412;8.790;2023-07-13T00:09:55;5.43;;;3.10;;
68888;SDS011;55930;47.412;8.790;2023-07-13T00:16:37;5.18;;;3.13;;
68888;SDS011;55930;47.412;8.790;2023-07-13T00:20:01;8.40;;;3.42;;
68888;SDS011;55930;47.412;8.790;2023-07-13T00:26:41;5.90;;;3.13;;
68888;SDS011;55930;47.412;8.790;2023-07-13T00:30:05;8.35;;;3.25;;
68888;SDS011;55930;47.412;8.790;2023-07-13T00:33:27;6.13;;;2.80;;
68888;SDS011;55930;47.412;8.790;2023-07-13T00:36:48;7.40;;;3.03;;
68888;SDS011;55930;47.412;8.790;2023-07-13T00:43:30;5.68;;;3.13;;
68888;SDS011;55930;47.412;8.790;2023-07-13T00:50:16;6.35;;;2.70;;
68888;SDS011;55930;47.412;8.790;2023-07-13T00:53:39;5.03;;;2.92;;
68888;SDS011;55930;47.412;8.790;2023-07-13T00:57:01;5.72;;;2.92;;
68888;SDS011;55930;47.412;8.790;2023-07-13T01:00:24;5.32;;;2.90;;
68888;SDS011;55930;47.412;8.790;2023-07-13T01:03:46;6.47;;;2.67;;
68888;SDS011;55930;47.412;8.790;2023-07-13T01:07:06;5.50;;;3.00;;
68888;SDS011;55930;47.412;8.790;2023-07-13T01:10:27;4.65;;;2.70;;
68888;SDS011;55930;47.412;8.790;2023-07-13T01:13:48;5.97;;;3.17;;
68888;SDS011;55930;47.412;8.790;2023-07-13T01:17:09;4.72;;;2.95;;
68888;SDS011;55930;47.412;8.790;2023-07-13T01:20:31;6.57;;;2.67;;
68888;SDS011;55930;47.412;8.790;2023-07-13T01:23:55;9.07;;;3.30;;
68888;SDS011;55930;47.412;8.790;2023-07-13T01:27:17;5.18;;;2.78;;
68888;SDS011;55930;47.412;8.790;2023-07-13T01:30:42;4.68;;;2.92;;
68888;SDS011;55930;47.412;8.790;2023-07-13T01:34:05;6.45;;;2.88;;
68888;SDS011;55930;47.412;8.790;2023-07-13T01:37:28;4.65;;;2.95;;
68888;SDS011;55930;47.412;8.790;2023-07-13T01:40:53;4.80;;;2.63;;
68888;SDS011;55930;47.412;8.790;2023-07-13T01:44:14;4.70;;;2.58;;
68888;SDS011;55930;47.412;8.790;2023-07-13T01:50:54;5.53;;;2.95;;
68888;SDS011;55930;47.412;8.790;2023-07-13T01:54:17;4.82;;;2.72;;
68888;SDS011;55930;47.412;8.790;2023-07-13T01:57:37;7.57;;;3.00;;
68888;SDS011;55930;47.412;8.790;2023-07-13T02:00:58;4.88;;;2.50;;
68888;SDS011;55930;47.412;8.790;2023-07-13T02:04:18;5.73;;;2.57;;
68888;SDS011;55930;47.412;8.790;2023-07-13T02:07:39;7.90;;;2.70;;
68888;SDS011;55930;47.412;8.790;2023-07-13T02:11:00;6.18;;;3.20;;
68888;SDS011;55930;47.412;8.790;2023-07-13T02:17:41;7.03;;;3.27;;
68888;SDS011;55930;47.412;8.790;2023-07-13T02:24:22;4.97;;;2.90;;
68888;SDS011;55930;47.412;8.790;2023-07-13T02:31:07;6.60;;;3.15;;
68888;SDS011;55930;47.412;8.790;2023-07-13T02:34:29;5.82;;;3.15;;
68888;SDS011;55930;47.412;8.790;2023-07-13T02:37:50;6.90;;;3.17;;
68888;SDS011;55930;47.412;8.790;2023-07-13T02:41:10;6.60;;;3.45;;
68888;SDS011;55930;47.412;8.790;2023-07-13T02:47:51;6.97;;;3.30;;
68888;SDS011;55930;47.412;8.790;2023-07-13T02:51:12;5.57;;;3.25;;
68888;SDS011;55930;47.412;8.790;2023-07-13T02:54:32;7.45;;;3.58;;
68888;SDS011;55930;47.412;8.790;2023-07-13T03:01:14;4.75;;;3.28;;
68888;SDS011;55930;47.412;8.790;2023-07-13T03:04:38;5.30;;;3.40;;
68888;SDS011;55930;47.412;8.790;2023-07-13T03:08:03;4.68;;;3.22;;
68888;SDS011;55930;47.412;8.790;2023-07-13T03:11:24;4.88;;;3.13;;
68888;SDS011;55930;47.412;8.790;2023-07-13T03:14:44;6.07;;;3.65;;
68888;SDS011;55930;47.412;8.790;2023-07-13T03:21:25;5.10;;;3.15;;
68888;SDS011;55930;47.412;8.790;2023-07-13T03:24:45;6.65;;;3.22;;
68888;SDS011;55930;47.412;8.790;2023-07-13T03:28:06;4.65;;;3.05;;
68888;SDS011;55930;47.412;8.790;2023-07-13T03:38:09;4.03;;;2.60;;
68888;SDS011;55930;47.412;8.790;2023-07-13T03:41:29;6.03;;;2.80;;
68888;SDS011;55930;47.412;8.790;2023-07-13T03:44:51;4.40;;;2.50;;
68888;SDS011;55930;47.412;8.790;2023-07-13T03:48:12;5.05;;;3.20;;
68888;SDS011;55930;47.412;8.790;2023-07-13T03:51:36;3.83;;;2.53;;
68888;SDS011;55930;47.412;8.790;2023-07-13T03:54:56;4.22;;;2.47;;
68888;SDS011;55930;47.412;8.790;2023-07-13T03:58:24;4.78;;;2.50;;
68888;SDS011;55930;47.412;8.790;2023-07-13T04:01:53;4.40;;;2.80;;
68888;SDS011;55930;47.412;8.790;2023-07-13T04:05:15;5.47;;;2.80;;
68888;SDS011;55930;47.412;8.790;2023-07-13T04:08:36;5.10;;;2.95;;
68888;SDS011;55930;47.412;8.790;2023-07-13T04:15:17;5.23;;;2.83;;
68888;SDS011;55930;47.412;8.790;2023-07-13T04:21:57;4.70;;;3.10;;
68888;SDS011;55930;47.412;8.790;2023-07-13T04:25:18;6.35;;;2.83;;
68888;SDS011;55930;47.412;8.790;2023-07-13T04:28:40;3.50;;;2.35;;
68888;SDS011;55930;47.412;8.790;2023-07-13T04:32:00;6.30;;;3.08;;
68888;SDS011;55930;47.412;8.790;2023-07-13T04:35:21;3.88;;;2.58;;
68888;SDS011;55930;47.412;8.790;2023-07-13T04:38:42;6.47;;;3.25;;
68888;SDS011;55930;47.412;8.790;2023-07-13T04:42:03;4.32;;;2.70;;
68888;SDS011;55930;47.412;8.790;2023-07-13T04:45:24;3.97;;;2.45;;
68888;SDS011;55930;47.412;8.790;2023-07-13T04:52:05;3.90;;;2.73;;
68888;SDS011;55930;47.412;8.790;2023-07-13T04:55:27;5.50;;;2.97;;
68888;SDS011;55930;47.412;8.790;2023-07-13T04:58:50;7.03;;;2.92;;
68888;SDS011;55930;47.412;8.790;2023-07-13T05:05:31;5.57;;;2.70;;
68888;SDS011;55930;47.412;8.790;2023-07-13T05:12:12;5.33;;;3.10;;
68888;SDS011;55930;47.412;8.790;2023-07-13T05:18:53;3.78;;;2.60;;
68888;SDS011;55930;47.412;8.790;2023-07-13T05:25:34;4.80;;;2.50;;
68888;SDS011;55930;47.412;8.790;2023-07-13T05:28:57;4.63;;;2.47;;
68888;SDS011;55930;47.412;8.790;2023-07-13T05:35:38;6.50;;;2.60;;
68888;SDS011;55930;47.412;8.790;2023-07-13T05:42:19;4.13;;;2.40;;
68888;SDS011;55930;47.412;8.790;2023-07-13T05:49:00;3.97;;;2.67;;
68888;SDS011;55930;47.412;8.790;2023-07-13T05:52:23;5.95;;;2.95;;
68888;SDS011;55930;47.412;8.790;2023-07-13T05:55:46;5.60;;;3.10;;
68888;SDS011;55930;47.412;8.790;2023-07-13T05:59:10;5.03;;;2.90;;
68888;SDS011;55930;47.412;8.790;2023-07-13T06:02:32;4.65;;;2.60;;
68888;SDS011;55930;47.412;8.790;2023-07-13T06:05:54;5.47;;;2.78;;
68888;SDS011;55930;47.412;8.790;2023-07-13T06:12:35;9.63;;;3.50;;
68888;SDS011;55930;47.412;8.790;2023-07-13T06:19:16;4.50;;;2.80;;
68888;SDS011;55930;47.412;8.790;2023-07-13T06:25:59;5.15;;;3.30;;
68888;SDS011;55930;47.412;8.790;2023-07-13T06:32:40;9.68;;;4.38;;
68888;SDS011;55930;47.412;8.790;2023-07-13T06:39:21;5.23;;;3.20;;
68888;SDS011;55930;47.412;8.790;2023-07-13T06:46:02;4.28;;;2.58;;
68888;SDS011;55930;47.412;8.790;2023-07-13T06:52:44;5.07;;;3.53;;
68888;SDS011;55930;47.412;8.790;2023-07-13T06:56:07;5.10;;;3.25;;
68888;SDS011;55930;47.412;8.790;2023-07-13T07:02:48;5.80;;;3.13;;
68888;SDS011;55930;47.412;8.790;2023-07-13T07:09:29;4.43;;;3.00;;
68888;SDS011;55930;47.412;8.790;2023-07-13T07:12:52;4.93;;;3.17;;
68888;SDS011;55930;47.412;8.790;2023-07-13T07:16:15;5.55;;;3.88;;
68888;SDS011;55930;47.412;8.790;2023-07-13T07:19:37;5.35;;;3.28;;
68888;SDS011;55930;47.412;8.790;2023-07-13T07:22:59;6.20;;;3.72;;
68888;SDS011;55930;47.412;8.790;2023-07-13T07:29:40;4.57;;;3.07;;
68888;SDS011;55930;47.412;8.790;2023-07-13T07:36:21;3.97;;;2.90;;
68888;SDS011;55930;47.412;8.790;2023-07-13T07:43:03;4.65;;;2.40;;
68888;SDS011;55930;47.412;8.790;2023-07-13T07:46:23;3.83;;;2.65;;
68888;SDS011;55930;47.412;8.790;2023-07-13T07:53:04;5.93;;;2.70;;
68888;SDS011;55930;47.412;8.790;2023-07-13T07:56:30;3.63;;;2.55;;
68888;SDS011;55930;47.412;8.790;2023-07-13T07:59:50;4.53;;;2.67;;
68888;SDS011;55930;47.412;8.790;2023-07-13T08:06:32;3.60;;;2.47;;
68888;SDS011;55930;47.412;8.790;2023-07-13T08:09:53;3.70;;;2.30;;
68888;SDS011;55930;47.412;8.790;2023-07-13T08:16:34;3.30;;;2.23;;
68888;SDS011;55930;47.412;8.790;2023-07-13T08:19:54;4.05;;;2.33;;
68888;SDS011;55930;47.412;8.790;2023-07-13T08:23:15;3.78;;;2.50;;
68888;SDS011;55930;47.412;8.790;2023-07-13T08:26:36;3.08;;;1.90;;
68888;SDS011;55930;47.412;8.790;2023-07-13T08:29:57;2.92;;;1.60;;
68888;SDS011;55930;47.412;8.790;2023-07-13T08:33:21;3.00;;;1.80;;
68888;SDS011;55930;47.412;8.790;2023-07-13T08:36:45;2.72;;;1.50;;
68888;SDS011;55930;47.412;8.790;2023-07-13T08:40:07;2.00;;;1.40;;
68888;SDS011;55930;47.412;8.790;2023-07-13T08:43:30;2.13;;;1.40;;
68888;SDS011;55930;47.412;8.790;2023-07-13T08:46:53;1.77;;;1.20;;
68888;SDS011;55930;47.412;8.790;2023-07-13T08:50:18;2.20;;;1.50;;
68888;SDS011;55930;47.412;8.790;2023-07-13T08:53:44;2.38;;;1.42;;
68888;SDS011;55930;47.412;8.790;2023-07-13T08:57:10;2.58;;;1.55;;
68888;SDS011;55930;47.412;8.790;2023-07-13T09:00:42;1.83;;;1.30;;
68888;SDS011;55930;47.412;8.790;2023-07-13T09:04:10;3.30;;;1.50;;
68888;SDS011;55930;47.412;8.790;2023-07-13T09:14:52;1.35;;;1.17;;
68888;SDS011;55930;47.412;8.790;2023-07-13T09:18:23;2.33;;;1.50;;
68888;SDS011;55930;47.412;8.790;2023-07-13T09:21:48;3.65;;;1.77;;
68888;SDS011;55930;47.412;8.790;2023-07-13T09:28:44;3.50;;;1.48;;
68888;SDS011;55930;47.412;8.790;2023-07-13T09:32:07;3.70;;;1.52;;
68888;SDS011;55930;47.412;8.790;2023-07-13T09:35:34;2.85;;;1.75;;
68888;SDS011;55930;47.412;8.790;2023-07-13T09:42:23;4.20;;;1.90;;
68888;SDS011;55930;47.412;8.790;2023-07-13T09:45:46;3.25;;;1.50;;
68888;SDS011;55930;47.412;8.790;2023-07-13T09:49:09;2.72;;;1.52;;
68888;SDS011;55930;47.412;8.790;2023-07-13T09:52:41;2.42;;;1.40;;
68888;SDS011;55930;47.412;8.790;2023-07-13T09:56:04;2.53;;;1.38;;
68888;SDS011;55930;47.412;8.790;2023-07-13T09:59:40;2.97;;;1.30;;
68888;SDS011;55930;47.412;8.790;2023-07-13T10:03:17;2.70;;;1.35;;
68888;SDS011;55930;47.412;8.790;2023-07-13T10:06:40;2.10;;;1.45;;
68888;SDS011;55930;47.412;8.790;2023-07-13T10:10:02;2.00;;;1.30;;
68888;SDS011;55930;47.412;8.790;2023-07-13T10:13:31;2.20;;;1.30;;
68888;SDS011;55930;47.412;8.790;2023-07-13T10:17:00;2.55;;;1.05;;
68888;SDS011;55930;47.412;8.790;2023-07-13T10:20:24;2.22;;;1.30;;
68888;SDS011;55930;47.412;8.790;2023-07-13T10:23:47;2.45;;;1.30;;
68888;SDS011;55930;47.412;8.790;2023-07-13T10:27:20;2.85;;;1.20;;
68888;SDS011;55930;47.412;8.790;2023-07-13T10:30:49;2.45;;;1.40;;
68888;SDS011;55930;47.412;8.790;2023-07-13T10:34:12;3.33;;;1.65;;
68888;SDS011;55930;47.412;8.790;2023-07-13T10:37:37;3.47;;;1.52;;
68888;SDS011;55930;47.412;8.790;2023-07-13T10:41:21;2.03;;;1.35;;
68888;SDS011;55930;47.412;8.790;2023-07-13T10:44:45;1.95;;;1.20;;
68888;SDS011;55930;47.412;8.790;2023-07-13T10:48:08;1.48;;;1.02;;
68888;SDS011;55930;47.412;8.790;2023-07-13T10:51:33;3.00;;;1.63;;
68888;SDS011;55930;47.412;8.790;2023-07-13T10:54:55;1.83;;;1.10;;
68888;SDS011;55930;47.412;8.790;2023-07-13T10:58:38;2.42;;;1.20;;
68888;SDS011;55930;47.412;8.790;2023-07-13T11:02:09;3.53;;;1.63;;
68888;SDS011;55930;47.412;8.790;2023-07-13T11:05:49;2.28;;;1.33;;
68888;SDS011;55930;47.412;8.790;2023-07-13T11:12:53;1.90;;;1.20;;
68888;SDS011;55930;47.412;8.790;2023-07-13T11:19:39;1.90;;;1.10;;
68888;SDS011;55930;47.412;8.790;2023-07-13T11:23:08;2.13;;;1.20;;
68888;SDS011;55930;47.412;8.790;2023-07-13T11:26:38;2.70;;;1.13;;
68888;SDS011;55930;47.412;8.790;2023-07-13T11:30:22;1.67;;;1.40;;
68888;SDS011;55930;47.412;8.790;2023-07-13T11:33:50;1.45;;;1.10;;
68888;SDS011;55930;47.412;8.790;2023-07-13T11:37:14;1.83;;;1.30;;
68888;SDS011;55930;47.412;8.790;2023-07-13T11:40:38;2.65;;;1.30;;
68888;SDS011;55930;47.412;8.790;2023-07-13T11:47:34;1.48;;;1.23;;
68888;SDS011;55930;47.412;8.790;2023-07-13T11:50:56;1.83;;;1.10;;
68888;SDS011;55930;47.412;8.790;2023-07-13T11:54:25;3.00;;;1.38;;
68888;SDS011;55930;47.412;8.790;2023-07-13T11:57:49;1.25;;;1.08;;
68888;SDS011;55930;47.412;8.790;2023-07-13T12:01:16;2.72;;;1.30;;
68888;SDS011;55930;47.412;8.790;2023-07-13T12:04:42;3.35;;;1.25;;
68888;SDS011;55930;47.412;8.790;2023-07-13T12:08:09;2.20;;;1.20;;
68888;SDS011;55930;47.412;8.790;2023-07-13T12:11:35;2.25;;;1.25;;
68888;SDS011;55930;47.412;8.790;2023-07-13T12:14:57;2.72;;;1.20;;
68888;SDS011;55930;47.412;8.790;2023-07-13T12:18:19;3.70;;;1.90;;
68888;SDS011;55930;47.412;8.790;2023-07-13T12:21:41;2.15;;;1.30;;
68888;SDS011;55930;47.412;8.790;2023-07-13T12:25:02;3.30;;;1.30;;
68888;SDS011;55930;47.412;8.790;2023-07-13T12:28:35;3.40;;;1.50;;
68888;SDS011;55930;47.412;8.790;2023-07-13T12:32:00;2.10;;;1.10;;
68888;SDS011;55930;47.412;8.790;2023-07-13T12:35:27;1.77;;;1.20;;
68888;SDS011;55930;47.412;8.790;2023-07-13T12:38:50;1.90;;;1.08;;
68888;SDS011;55930;47.412;8.790;2023-07-13T12:42:17;1.75;;;1.23;;
68888;SDS011;55930;47.412;8.790;2023-07-13T12:46:01;2.75;;;1.30;;
68888;SDS011;55930;47.412;8.790;2023-07-13T12:49:24;1.83;;;1.13;;
68888;SDS011;55930;47.412;8.790;2023-07-13T12:52:53;5.97;;;1.45;;
68888;SDS011;55930;47.412;8.790;2023-07-13T12:56:21;3.08;;;1.20;;
68888;SDS011;55930;47.412;8.790;2023-07-13T12:59:43;1.67;;;1.23;;
68888;SDS011;55930;47.412;8.790;2023-07-13T13:03:11;5.22;;;1.83;;
68888;SDS011;55930;47.412;8.790;2023-07-13T13:06:35;4.68;;;1.30;;
68888;SDS011;55930;47.412;8.790;2023-07-13T13:09:56;2.05;;;1.10;;
68888;SDS011;55930;47.412;8.790;2023-07-13T13:13:16;2.40;;;1.20;;
68888;SDS011;55930;47.412;8.790;2023-07-13T13:16:47;1.50;;;1.00;;
68888;SDS011;55930;47.412;8.790;2023-07-13T13:20:16;3.53;;;0.93;;
68888;SDS011;55930;47.412;8.790;2023-07-13T13:23:38;1.38;;;1.10;;
68888;SDS011;55930;47.412;8.790;2023-07-13T13:27:01;2.47;;;0.88;;
68888;SDS011;55930;47.412;8.790;2023-07-13T13:30:22;2.28;;;1.27;;
68888;SDS011;55930;47.412;8.790;2023-07-13T13:33:44;3.15;;;1.30;;
68888;SDS011;55930;47.412;8.790;2023-07-13T13:37:19;4.43;;;1.20;;
68888;SDS011;55930;47.412;8.790;2023-07-13T13:40:42;2.72;;;1.10;;
68888;SDS011;55930;47.412;8.790;2023-07-13T13:44:04;1.85;;;1.10;;
68888;SDS011;55930;47.412;8.790;2023-07-13T13:47:28;1.65;;;1.20;;
68888;SDS011;55930;47.412;8.790;2023-07-13T13:50:51;1.98;;;1.10;;
68888;SDS011;55930;47.412;8.790;2023-07-13T13:54:14;2.25;;;1.20;;
68888;SDS011;55930;47.412;8.790;2023-07-13T13:57:36;1.75;;;1.10;;
68888;SDS011;55930;47.412;8.790;2023-07-13T14:00:56;2.70;;;1.30;;
68888;SDS011;55930;47.412;8.790;2023-07-13T14:04:18;3.15;;;1.30;;
68888;SDS011;55930;47.412;8.790;2023-07-13T14:07:41;2.10;;;1.30;;
68888;SDS011;55930;47.412;8.790;2023-07-13T14:11:01;3.40;;;1.70;;
68888;SDS011;55930;47.412;8.790;2023-07-13T14:14:22;2.75;;;1.50;;
68888;SDS011;55930;47.412;8.790;2023-07-13T14:17:44;2.03;;;1.20;;
68888;SDS011;55930;47.412;8.790;2023-07-13T14:21:08;2.72;;;1.30;;
68888;SDS011;55930;47.412;8.790;2023-07-13T14:24:32;2.90;;;1.13;;
68888;SDS011;55930;47.412;8.790;2023-07-13T14:27:56;2.90;;;1.13;;
68888;SDS011;55930;47.412;8.790;2023-07-13T14:31:19;2.75;;;1.10;;
68888;SDS011;55930;47.412;8.790;2023-07-13T14:34:40;1.52;;;1.02;;
68888;SDS011;55930;47.412;8.790;2023-07-13T14:38:02;1.90;;;1.00;;
68888;SDS011;55930;47.412;8.790;2023-07-13T14:41:22;2.35;;;1.17;;
68888;SDS011;55930;47.412;8.790;2023-07-13T14:44:43;1.90;;;1.10;;
68888;SDS011;55930;47.412;8.790;2023-07-13T14:48:04;2.42;;;1.40;;
68888;SDS011;55930;47.412;8.790;2023-07-13T14:51:25;3.45;;;1.30;;
68888;SDS011;55930;47.412;8.790;2023-07-13T14:54:46;3.17;;;1.40;;
68888;SDS011;55930;47.412;8.790;2023-07-13T14:58:07;3.10;;;1.52;;
68888;SDS011;55930;47.412;8.790;2023-07-13T15:01:27;3.65;;;1.15;;
68888;SDS011;55930;47.412;8.790;2023-07-13T15:04:48;2.20;;;1.20;;
68888;SDS011;55930;47.412;8.790;2023-07-13T15:08:09;2.70;;;1.30;;
68888;SDS011;55930;47.412;8.790;2023-07-13T15:11:30;3.35;;;1.30;;
68888;SDS011;55930;47.412;8.790;2023-07-13T15:14:51;3.47;;;1.50;;
68888;SDS011;55930;47.412;8.790;2023-07-13T15:18:11;3.22;;;1.80;;
68888;SDS011;55930;47.412;8.790;2023-07-13T15:21:34;3.53;;;1.50;;
68888;SDS011;55930;47.412;8.790;2023-07-13T15:24:56;3.30;;;1.42;;
68888;SDS011;55930;47.412;8.790;2023-07-13T15:28:16;2.72;;;1.30;;
68888;SDS011;55930;47.412;8.790;2023-07-13T15:31:37;2.67;;;1.50;;
68888;SDS011;55930;47.412;8.790;2023-07-13T15:34:59;3.70;;;1.60;;
68888;SDS011;55930;47.412;8.790;2023-07-13T15:38:24;3.88;;;1.50;;
68888;SDS011;55930;47.412;8.790;2023-07-13T15:41:51;4.07;;;1.08;;
68888;SDS011;55930;47.412;8.790;2023-07-13T15:45:23;3.67;;;1.40;;
68888;SDS011;55930;47.412;8.790;2023-07-13T15:48:51;3.58;;;1.40;;
68888;SDS011;55930;47.412;8.790;2023-07-13T15:52:23;3.58;;;1.33;;
68888;SDS011;55930;47.412;8.790;2023-07-13T15:55:44;2.97;;;1.40;;
68888;SDS011;55930;47.412;8.790;2023-07-13T15:59:04;2.63;;;1.30;;
68888;SDS011;55930;47.412;8.790;2023-07-13T16:02:25;2.45;;;1.15;;
68888;SDS011;55930;47.412;8.790;2023-07-13T16:05:45;7.07;;;1.25;;
68888;SDS011;55930;47.412;8.790;2023-07-13T16:09:08;5.85;;;1.20;;
68888;SDS011;55930;47.412;8.790;2023-07-13T16:12:36;2.55;;;1.30;;
68888;SDS011;55930;47.412;8.790;2023-07-13T16:15:57;1.90;;;1.30;;
68888;SDS011;55930;47.412;8.790;2023-07-13T16:19:19;2.53;;;1.15;;
68888;SDS011;55930;47.412;8.790;2023-07-13T16:22:49;3.88;;;1.50;;
68888;SDS011;55930;47.412;8.790;2023-07-13T16:26:35;6.30;;;1.38;;
68888;SDS011;55930;47.412;8.790;2023-07-13T16:30:15;4.57;;;1.85;;
68888;SDS011;55930;47.412;8.790;2023-07-13T16:33:38;2.75;;;1.17;;
68888;SDS011;55930;47.412;8.790;2023-07-13T16:36:59;2.55;;;1.27;;
68888;SDS011;55930;47.412;8.790;2023-07-13T16:43:44;3.78;;;1.00;;
68888;SDS011;55930;47.412;8.790;2023-07-13T16:47:09;3.83;;;1.00;;
68888;SDS011;55930;47.412;8.790;2023-07-13T16:50:33;2.55;;;1.13;;
68888;SDS011;55930;47.412;8.790;2023-07-13T16:53:54;2.05;;;1.00;;
68888;SDS011;55930;47.412;8.790;2023-07-13T16:57:15;3.65;;;1.00;;
68888;SDS011;55930;47.412;8.790;2023-07-13T17:00:39;3.05;;;1.25;;
68888;SDS011;55930;47.412;8.790;2023-07-13T17:03:59;6.70;;;1.55;;
68888;SDS011;55930;47.412;8.790;2023-07-13T17:07:20;1.80;;;0.80;;
68888;SDS011;55930;47.412;8.790;2023-07-13T17:10:43;7.75;;;1.13;;
68888;SDS011;55930;47.412;8.790;2023-07-13T17:14:05;3.30;;;1.15;;
68888;SDS011;55930;47.412;8.790;2023-07-13T17:17:34;3.30;;;1.20;;
68888;SDS011;55930;47.412;8.790;2023-07-13T17:21:06;5.30;;;1.20;;
68888;SDS011;55930;47.412;8.790;2023-07-13T17:24:29;2.42;;;1.10;;
68888;SDS011;55930;47.412;8.790;2023-07-13T17:27:53;2.63;;;1.10;;
68888;SDS011;55930;47.412;8.790;2023-07-13T17:31:16;3.78;;;1.40;;
68888;SDS011;55930;47.412;8.790;2023-07-13T17:34:40;2.83;;;1.17;;
68888;SDS011;55930;47.412;8.790;2023-07-13T17:38:05;5.57;;;1.45;;
68888;SDS011;55930;47.412;8.790;2023-07-13T17:41:26;2.17;;;1.10;;
68888;SDS011;55930;47.412;8.790;2023-07-13T17:44:48;3.55;;;1.20;;
68888;SDS011;55930;47.412;8.790;2023-07-13T17:48:09;4.63;;;1.00;;
68888;SDS011;55930;47.412;8.790;2023-07-13T17:51:31;4.55;;;1.00;;
68888;SDS011;55930;47.412;8.790;2023-07-13T17:54:52;4.18;;;1.08;;
68888;SDS011;55930;47.412;8.790;2023-07-13T17:58:13;4.88;;;1.30;;
68888;SDS011;55930;47.412;8.790;2023-07-13T18:01:34;4.22;;;1.35;;
68888;SDS011;55930;47.412;8.790;2023-07-13T18:05:00;5.40;;;1.10;;
68888;SDS011;55930;47.412;8.790;2023-07-13T18:08:29;3.00;;;1.23;;
68888;SDS011;55930;47.412;8.790;2023-07-13T18:11:51;5.80;;;1.13;;
68888;SDS011;55930;47.412;8.790;2023-07-13T18:15:12;7.85;;;0.93;;
68888;SDS011;55930;47.412;8.790;2023-07-13T18:18:34;4.93;;;1.20;;
68888;SDS011;55930;47.412;8.790;2023-07-13T18:21:54;5.28;;;1.40;;
68888;SDS011;55930;47.412;8.790;2023-07-13T18:25:16;7.40;;;1.85;;
68888;SDS011;55930;47.412;8.790;2023-07-13T18:28:39;2.50;;;1.23;;
68888;SDS011;55930;47.412;8.790;2023-07-13T18:32:02;1.92;;;1.00;;
68888;SDS011;55930;47.412;8.790;2023-07-13T18:35:29;2.55;;;0.95;;
68888;SDS011;55930;47.412;8.790;2023-07-13T18:38:53;3.08;;;1.05;;
68888;SDS011;55930;47.412;8.790;2023-07-13T18:42:13;4.60;;;1.63;;
68888;SDS011;55930;47.412;8.790;2023-07-13T18:45:35;3.15;;;1.27;;
68888;SDS011;55930;47.412;8.790;2023-07-13T18:48:55;6.03;;;0.85;;
68888;SDS011;55930;47.412;8.790;2023-07-13T18:52:17;1.98;;;1.00;;
68888;SDS011;55930;47.412;8.790;2023-07-13T18:55:39;7.13;;;1.40;;
68888;SDS011;55930;47.412;8.790;2023-07-13T18:59:00;4.13;;;1.25;;
68888;SDS011;55930;47.412;8.790;2023-07-13T19:02:20;3.22;;;1.40;;
68888;SDS011;55930;47.412;8.790;2023-07-13T19:05:43;4.50;;;1.10;;
68888;SDS011;55930;47.412;8.790;2023-07-13T19:09:08;7.20;;;1.10;;
68888;SDS011;55930;47.412;8.790;2023-07-13T19:12:31;3.33;;;1.25;;
68888;SDS011;55930;47.412;8.790;2023-07-13T19:15:51;5.07;;;1.40;;
68888;SDS011;55930;47.412;8.790;2023-07-13T19:19:15;5.40;;;1.40;;
68888;SDS011;55930;47.412;8.790;2023-07-13T19:22:37;2.78;;;1.20;;
68888;SDS011;55930;47.412;8.790;2023-07-13T19:26:05;3.53;;;1.20;;
68888;SDS011;55930;47.412;8.790;2023-07-13T19:29:32;2.15;;;1.20;;
68888;SDS011;55930;47.412;8.790;2023-07-13T19:32:56;4.88;;;1.40;;
68888;SDS011;55930;47.412;8.790;2023-07-13T19:36:20;3.20;;;1.10;;
68888;SDS011;55930;47.412;8.790;2023-07-13T19:39:42;2.65;;;1.33;;
68888;SDS011;55930;47.412;8.790;2023-07-13T19:43:04;2.80;;;1.20;;
68888;SDS011;55930;47.412;8.790;2023-07-13T19:46:29;3.80;;;1.45;;
68888;SDS011;55930;47.412;8.790;2023-07-13T19:49:54;4.18;;;1.15;;
68888;SDS011;55930;47.412;8.790;2023-07-13T19:53:17;4.25;;;1.55;;
68888;SDS011;55930;47.412;8.790;2023-07-13T19:56:40;7.05;;;1.50;;
68888;SDS011;55930;47.412;8.790;2023-07-13T20:03:23;6.72;;;3.13;;
68888;SDS011;55930;47.412;8.790;2023-07-13T20:10:14;4.00;;;1.60;;
68888;SDS011;55930;47.412;8.790;2023-07-13T20:13:46;3.63;;;1.30;;
68888;SDS011;55930;47.412;8.790;2023-07-13T20:20:44;4.43;;;1.95;;
68888;SDS011;55930;47.412;8.790;2023-07-13T20:24:15;3.03;;;2.05;;
68888;SDS011;55930;47.412;8.790;2023-07-13T20:27:37;4.07;;;1.30;;
68888;SDS011;55930;47.412;8.790;2023-07-13T20:34:21;4.17;;;1.57;;
68888;SDS011;55930;47.412;8.790;2023-07-13T20:37:44;3.72;;;1.38;;
68888;SDS011;55930;47.412;8.790;2023-07-13T20:41:05;3.15;;;1.25;;
68888;SDS011;55930;47.412;8.790;2023-07-13T20:44:28;5.78;;;1.10;;
68888;SDS011;55930;47.412;8.790;2023-07-13T20:47:53;5.45;;;1.30;;
68888;SDS011;55930;47.412;8.790;2023-07-13T20:51:16;3.53;;;1.30;;
68888;SDS011;55930;47.412;8.790;2023-07-13T20:54:38;4.90;;;1.60;;
68888;SDS011;55930;47.412;8.790;2023-07-13T20:58:03;6.28;;;1.40;;
68888;SDS011;55930;47.412;8.790;2023-07-13T21:04:51;6.10;;;1.50;;
68888;SDS011;55930;47.412;8.790;2023-07-13T21:08:19;4.55;;;1.55;;
68888;SDS011;55930;47.412;8.790;2023-07-13T21:11:43;5.88;;;1.90;;
68888;SDS011;55930;47.412;8.790;2023-07-13T21:15:04;6.95;;;1.60;;
68888;SDS011;55930;47.412;8.790;2023-07-13T21:21:45;5.90;;;1.40;;
68888;SDS011;55930;47.412;8.790;2023-07-13T21:28:34;5.15;;;1.50;;
68888;SDS011;55930;47.412;8.790;2023-07-13T21:31:56;3.20;;;1.27;;
68888;SDS011;55930;47.412;8.790;2023-07-13T21:35:18;3.72;;;1.52;;
68888;SDS011;55930;47.412;8.790;2023-07-13T21:38:48;2.88;;;1.60;;
68888;SDS011;55930;47.412;8.790;2023-07-13T21:42:14;6.00;;;1.58;;
68888;SDS011;55930;47.412;8.790;2023-07-13T21:45:34;7.22;;;1.33;;
68888;SDS011;55930;47.412;8.790;2023-07-13T21:48:55;4.17;;;1.40;;
68888;SDS011;55930;47.412;8.790;2023-07-13T21:52:18;3.08;;;1.73;;
68888;SDS011;55930;47.412;8.790;2023-07-13T21:55:39;9.13;;;1.83;;
68888;SDS011;55930;47.412;8.790;2023-07-13T21:59:03;3.55;;;1.65;;
68888;SDS011;55930;47.412;8.790;2023-07-13T22:02:34;4.90;;;2.03;;
68888;SDS011;55930;47.412;8.790;2023-07-13T22:05:55;2.03;;;1.57;;
68888;SDS011;55930;47.412;8.790;2023-07-13T22:09:18;6.80;;;1.65;;
68888;SDS011;55930;47.412;8.790;2023-07-13T22:12:42;2.58;;;1.42;;
68888;SDS011;55930;47.412;8.790;2023-07-13T22:16:10;5.05;;;1.60;;
68888;SDS011;55930;47.412;8.790;2023-07-13T22:19:42;3.92;;;1.60;;
68888;SDS011;55930;47.412;8.790;2023-07-13T22:23:09;5.57;;;1.77;;
68888;SDS011;55930;47.412;8.790;2023-07-13T22:26:36;9.50;;;1.75;;
68888;SDS011;55930;47.412;8.790;2023-07-13T22:29:59;6.93;;;1.80;;
68888;SDS011;55930;47.412;8.790;2023-07-13T22:33:21;4.37;;;1.60;;
68888;SDS011;55930;47.412;8.790;2023-07-13T22:36:44;4.65;;;1.80;;
68888;SDS011;55930;47.412;8.790;2023-07-13T22:40:15;2.95;;;1.35;;
68888;SDS011;55930;47.412;8.790;2023-07-13T22:43:38;5.25;;;1.60;;
68888;SDS011;55930;47.412;8.790;2023-07-13T22:47:02;3.40;;;1.58;;
68888;SDS011;55930;47.412;8.790;2023-07-13T22:50:23;3.40;;;1.55;;
68888;SDS011;55930;47.412;8.790;2023-07-13T22:53:43;3.93;;;1.50;;
68888;SDS011;55930;47.412;8.790;2023-07-13T22:57:04;7.00;;;1.52;;
68888;SDS011;55930;47.412;8.790;2023-07-13T23:00:25;3.27;;;1.43;;
68888;SDS011;55930;47.412;8.790;2023-07-13T23:03:46;4.83;;;1.67;;
68888;SDS011;55930;47.412;8.790;2023-07-13T23:10:30;5.53;;;1.83;;
68888;SDS011;55930;47.412;8.790;2023-07-13T23:13:50;4.45;;;1.40;;
68888;SDS011;55930;47.412;8.790;2023-07-13T23:17:11;4.20;;;1.80;;
68888;SDS011;55930;47.412;8.790;2023-07-13T23:20:33;5.32;;;1.77;;
68888;SDS011;55930;47.412;8.790;2023-07-13T23:23:54;6.32;;;1.90;;
68888;SDS011;55930;47.412;8.790;2023-07-13T23:27:15;6.47;;;1.83;;
68888;SDS011;55930;47.412;8.790;2023-07-13T23:30:39;3.60;;;1.88;;